Time;durP1;ratioP1;P1;durP2;ratioP2;P2;SDS_P1;SDS_P2;PMS_P1;PMS_P2;Temp;Humidity;BMP_temperature;BMP_pressure;BME280_temperature;BME280_humidity;BME280_pressure;Samples;Min_cycle;Max_cycle;Signal;HPM_P1;HPM_P2
2022/09/20 00:01:11;;;;;;;7.80;3.00;;;13.50;78.50;;;;;;5065359;28;20454;-45
2022/09/20 00:03:40;;;;;;;3.63;2.43;;;13.50;78.50;;;;;;5078517;28;21026;-46
2022/09/20 00:06:10;;;;;;;3.83;2.50;;;13.50;78.50;;;;;;5079390;28;20490;-45
2022/09/20 00:08:37;;;;;;;7.00;2.27;;;13.50;78.70;;;;;;5080050;28;20465;-46
2022/09/20 00:11:06;;;;;;;2.33;2.07;;;13.50;78.70;;;;;;5081306;28;20499;-45
2022/09/20 00:13:34;;;;;;;6.50;2.37;;;13.50;78.80;;;;;;5078441;28;20531;-45
2022/09/20 00:16:08;;;;;;;7.33;2.80;;;13.40;79.00;;;;;;5078926;28;20468;-45
2022/09/20 00:18:35;;;;;;;4.47;2.00;;;13.40;79.20;;;;;;5066347;28;20495;-45
2022/09/20 00:21:03;;;;;;;6.80;2.60;;;13.30;79.50;;;;;;5083562;28;20469;-45
2022/09/20 00:23:31;;;;;;;3.87;2.10;;;13.20;79.70;;;;;;5077922;28;20464;-45
2022/09/20 00:26:02;;;;;;;3.73;2.10;;;13.20;79.90;;;;;;5080900;28;20563;-45
2022/09/20 00:28:30;;;;;;;4.30;2.20;;;13.20;80.00;;;;;;5077272;28;20453;-45
2022/09/20 00:30:57;;;;;;;3.13;2.70;;;13.10;80.10;;;;;;5064636;28;20485;-46
2022/09/20 00:35:06;;;;;;;5.80;3.27;;;13.10;79.90;;;;;;5073958;28;20457;-45
2022/09/20 00:36:15;;;;;;;4.03;2.33;;;13.10;80.10;;;;;;5079949;28;20498;-45
2022/09/20 00:38:41;;;;;;;9.50;2.70;;;13.10;79.90;;;;;;5059167;28;21039;-46
2022/09/20 00:41:08;;;;;;;7.00;3.80;;;13.10;79.90;;;;;;5075950;28;20484;-46
2022/09/20 00:43:39;;;;;;;7.93;3.20;;;13.20;79.60;;;;;;5078885;28;20461;-45
2022/09/20 00:46:20;;;;;;;10.17;3.60;;;13.20;79.40;;;;;;5074744;28;20861;-45
2022/09/20 00:48:48;;;;;;;9.30;4.47;;;13.20;79.20;;;;;;5049141;28;20440;-45
2022/09/20 00:51:21;;;;;;;9.47;3.33;;;13.20;79.20;;;;;;5077006;28;20457;-45
2022/09/20 00:53:50;;;;;;;6.90;3.27;;;13.20;79.20;;;;;;5061970;28;20506;-46
2022/09/20 00:56:23;;;;;;;8.00;4.10;;;13.10;79.30;;;;;;5074592;28;20487;-45
2022/09/20 00:59:05;;;;;;;3.90;2.90;;;13.20;79.00;;;;;;5061837;28;20477;-45
2022/09/20 01:01:32;;;;;;;5.70;2.80;;;13.20;78.80;;;;;;5078910;28;20469;-45
2022/09/20 01:03:59;;;;;;;7.73;2.60;;;13.20;78.90;;;;;;5058997;28;20461;-45
2022/09/20 01:06:27;;;;;;;5.60;3.07;;;13.20;79.00;;;;;;5062963;28;20543;-45
2022/09/20 01:08:57;;;;;;;5.83;3.00;;;13.10;79.10;;;;;;5076720;28;20469;-45
2022/09/20 01:11:24;;;;;;;4.33;2.90;;;13.10;79.40;;;;;;5078869;28;20507;-45
2022/09/20 01:13:51;;;;;;;5.00;3.53;;;13.10;79.30;;;;;;5075311;28;20509;-45
2022/09/20 01:16:19;;;;;;;6.90;3.60;;;13.10;79.30;;;;;;5074690;28;20457;-45
2022/09/20 01:18:48;;;;;;;6.40;3.70;;;13.00;79.30;;;;;;5076849;28;20990;-45
2022/09/20 01:21:16;;;;;;;3.77;2.50;;;13.00;79.40;;;;;;5070873;28;20527;-45
2022/09/20 01:24:11;;;;;;;6.40;3.10;;;13.00;79.70;;;;;;5063181;28;20461;-45
2022/09/20 01:26:40;;;;;;;6.87;3.20;;;13.00;79.40;;;;;;5079344;28;20578;-45
2022/09/20 01:29:33;;;;;;;5.47;2.90;;;13.00;79.00;;;;;;5077304;28;20480;-45
2022/09/20 01:32:04;;;;;;;4.23;2.70;;;13.10;79.00;;;;;;5081228;28;20493;-45
2022/09/20 01:34:45;;;;;;;6.47;3.00;;;13.10;78.90;;;;;;5062058;28;20539;-45
2022/09/20 01:37:31;;;;;;;6.27;3.10;;;13.10;78.90;;;;;;5065353;28;20512;-45
2022/09/20 01:40:11;;;;;;;5.37;2.50;;;13.10;78.80;;;;;;5078399;28;20465;-45
2022/09/20 01:42:48;;;;;;;5.30;3.00;;;13.10;78.90;;;;;;5058429;28;23100;-45
2022/09/20 01:45:30;;;;;;;3.40;2.57;;;13.10;79.00;;;;;;5046889;28;20485;-45
2022/09/20 01:48:17;;;;;;;7.03;3.97;;;13.10;78.80;;;;;;5082512;28;20493;-45
2022/09/20 01:50:49;;;;;;;3.87;2.80;;;13.00;79.20;;;;;;5083744;28;20464;-46
2022/09/20 01:53:47;;;;;;;2.80;2.37;;;13.00;79.30;;;;;;5082201;28;20450;-45
2022/09/20 01:56:41;;;;;;;5.30;2.40;;;13.00;79.00;;;;;;5071103;28;20477;-45
2022/09/20 01:59:33;;;;;;;4.87;2.47;;;12.90;79.20;;;;;;5083033;28;20464;-45
2022/09/20 02:02:00;;;;;;;3.70;2.80;;;12.80;79.70;;;;;;5079859;28;20465;-45
2022/09/20 02:04:39;;;;;;;6.00;2.37;;;12.80;79.60;;;;;;5066116;28;20496;-45
2022/09/20 02:07:43;;;;;;;6.77;2.20;;;12.70;80.20;;;;;;5082859;28;21032;-45
2022/09/20 02:10:32;;;;;;;5.87;2.70;;;12.60;80.70;;;;;;5081532;28;20858;-46
2022/09/20 02:13:05;;;;;;;5.87;3.20;;;12.60;80.80;;;;;;5082991;28;20456;-45
2022/09/20 02:16:10;;;;;;;4.03;2.33;;;12.50;80.90;;;;;;5074843;28;20460;-45
2022/09/20 02:19:11;;;;;;;6.47;2.90;;;12.50;80.90;;;;;;5082733;28;20556;-46
2022/09/20 02:21:53;;;;;;;4.33;2.83;;;12.50;80.80;;;;;;5082293;28;21072;-46
2022/09/20 02:24:49;;;;;;;5.07;2.20;;;12.50;80.70;;;;;;5066682;28;20519;-45
2022/09/20 02:27:54;;;;;;;4.20;2.67;;;12.50;80.70;;;;;;5085057;28;20865;-45
2022/09/20 02:30:39;;;;;;;8.50;2.97;;;12.40;81.00;;;;;;5062994;28;20489;-45
2022/09/20 02:33:12;;;;;;;7.80;2.87;;;12.40;81.00;;;;;;5069780;28;20530;-46
2022/09/20 02:35:56;;;;;;;8.63;3.37;;;12.40;80.80;;;;;;5081677;28;20461;-45
2022/09/20 02:38:41;;;;;;;10.90;5.67;;;12.40;81.00;;;;;;5083051;28;20457;-45
2022/09/20 02:41:19;;;;;;;14.07;3.93;;;12.40;80.90;;;;;;5076306;28;20923;-47
2022/09/20 02:44:12;;;;;;;6.30;4.50;;;12.40;81.20;;;;;;5076051;28;20513;-47
2022/09/20 02:47:10;;;;;;;6.77;3.63;;;12.30;81.50;;;;;;5072814;28;21019;-48
2022/09/20 02:49:55;;;;;;;6.40;3.53;;;12.40;81.60;;;;;;5058610;28;20473;-48
2022/09/20 02:52:29;;;;;;;4.13;3.73;;;12.30;81.30;;;;;;5073500;28;20931;-48
2022/09/20 02:55:05;;;;;;;7.77;3.87;;;12.30;81.70;;;;;;5075443;28;21360;-47
2022/09/20 02:57:38;;;;;;;7.97;4.43;;;12.10;82.20;;;;;;5073764;28;20884;-47
2022/09/20 03:00:18;;;;;;;6.20;4.10;;;12.00;82.70;;;;;;5058570;28;20498;-48
2022/09/20 03:02:57;;;;;;;6.80;4.27;;;12.00;83.00;;;;;;5076382;28;20553;-48
2022/09/20 03:05:56;;;;;;;7.40;5.30;;;12.00;82.70;;;;;;5076143;28;20516;-47
2022/09/20 03:08:32;;;;;;;6.70;4.50;;;12.00;82.50;;;;;;5063381;28;20537;-47
2022/09/20 03:11:25;;;;;;;7.67;4.27;;;12.00;82.70;;;;;;5078257;28;20444;-48
2022/09/20 03:14:29;;;;;;;5.60;4.50;;;12.00;82.50;;;;;;5074908;28;20470;-47
2022/09/20 03:17:21;;;;;;;7.63;4.03;;;11.90;82.60;;;;;;5070123;28;20978;-47
2022/09/20 03:19:55;;;;;;;7.40;3.90;;;11.90;82.20;;;;;;5075782;28;20457;-47
2022/09/20 03:23:00;;;;;;;7.43;4.63;;;11.80;82.40;;;;;;5073005;28;20937;-47
2022/09/20 03:25:48;;;;;;;5.87;4.90;;;11.70;82.30;;;;;;5075315;28;20528;-48
2022/09/20 03:28:43;;;;;;;9.57;4.80;;;11.50;82.80;;;;;;5070949;28;21171;-47
2022/09/20 03:31:22;;;;;;;14.20;5.50;;;11.50;83.20;;;;;;5062467;28;20497;-47
2022/09/20 03:34:07;;;;;;;9.00;5.70;;;11.60;82.80;;;;;;5057711;28;20971;-47
2022/09/20 03:36:43;;;;;;;10.27;4.70;;;11.60;82.60;;;;;;5059658;28;20501;-47
2022/09/20 03:39:35;;;;;;;10.67;6.90;;;11.50;82.80;;;;;;5058897;28;20457;-47
2022/09/20 03:42:15;;;;;;;11.00;4.90;;;11.60;82.80;;;;;;5067331;28;20855;-48
2022/09/20 03:45:12;;;;;;;7.60;4.80;;;11.60;82.50;;;;;;5078316;28;20457;-47
2022/09/20 03:47:48;;;;;;;11.97;4.93;;;11.50;82.80;;;;;;5073829;28;20514;-48
2022/09/20 03:50:38;;;;;;;12.37;4.63;;;11.50;83.30;;;;;;5077934;28;20834;-48
2022/09/20 03:53:04;;;;;;;9.50;5.03;;;11.50;83.30;;;;;;5031259;28;20548;-48
2022/09/20 03:55:49;;;;;;;6.40;3.93;;;11.50;83.30;;;;;;5073840;28;20555;-47
2022/09/20 03:58:47;;;;;;;9.67;3.90;;;11.60;83.10;;;;;;5056907;28;20516;-47
2022/09/20 04:01:32;;;;;;;5.30;3.70;;;11.60;83.10;;;;;;5074905;28;20895;-48
2022/09/20 04:04:11;;;;;;;7.40;3.80;;;11.50;83.00;;;;;;5071645;28;20750;-47
2022/09/20 04:07:08;;;;;;;6.20;4.33;;;11.50;83.20;;;;;;5073184;28;20538;-48
2022/09/20 04:09:53;;;;;;;8.10;3.90;;;11.40;83.10;;;;;;5060548;28;20477;-48
2022/09/20 04:12:57;;;;;;;8.43;4.30;;;11.30;83.40;;;;;;5071562;28;20536;-47
2022/09/20 04:15:33;;;;;;;6.13;4.07;;;11.40;83.50;;;;;;5071411;28;20480;-48
2022/09/20 04:18:23;;;;;;;5.53;3.80;;;11.30;83.50;;;;;;5073252;28;20772;-47
2022/09/20 04:20:59;;;;;;;7.43;3.70;;;11.30;83.80;;;;;;5069212;28;20454;-47
2022/09/20 04:23:55;;;;;;;8.00;4.87;;;11.40;83.60;;;;;;5064873;28;21083;-47
2022/09/20 04:26:28;;;;;;;8.97;4.30;;;11.40;83.70;;;;;;5062600;28;20527;-47
2022/09/20 04:29:00;;;;;;;7.67;4.00;;;11.50;83.30;;;;;;5055203;28;20905;-47
2022/09/20 04:31:44;;;;;;;4.90;4.40;;;11.40;83.50;;;;;;5070529;28;20494;-47
2022/09/20 04:36:27;;;;;;;6.63;4.93;;;11.40;83.40;;;;;;5071381;28;20866;-48
2022/09/20 04:37:28;;;;;;;9.77;5.57;;;11.40;83.10;;;;;;5076036;28;20493;-47
2022/09/20 04:40:28;;;;;;;9.63;5.90;;;11.30;83.50;;;;;;5068563;28;20465;-47
2022/09/20 04:43:09;;;;;;;12.10;5.93;;;11.20;83.90;;;;;;5057573;28;20467;-48
2022/09/20 04:46:07;;;;;;;8.37;5.10;;;11.10;84.90;;;;;;5068896;28;20568;-47
2022/09/20 04:49:03;;;;;;;7.60;4.77;;;11.10;85.10;;;;;;5055360;28;20474;-47
2022/09/20 04:51:54;;;;;;;9.93;5.10;;;11.10;85.20;;;;;;5048841;28;20547;-47
2022/09/20 04:54:43;;;;;;;6.73;5.40;;;11.10;85.40;;;;;;5074339;28;20912;-47
2022/09/20 04:57:38;;;;;;;10.63;4.33;;;11.20;85.40;;;;;;5069535;28;20538;-47
2022/09/20 05:00:13;;;;;;;10.97;6.60;;;11.20;85.70;;;;;;5071679;28;20492;-48
2022/09/20 05:02:58;;;;;;;11.00;6.97;;;11.30;85.40;;;;;;5070714;28;20491;-48
2022/09/20 05:05:37;;;;;;;7.00;5.83;;;11.30;85.70;;;;;;5073473;28;20495;-47
2022/09/20 05:08:26;;;;;;;9.57;5.80;;;11.30;85.70;;;;;;5069037;28;20508;-47
2022/09/20 05:11:11;;;;;;;14.17;5.30;;;11.30;85.80;;;;;;5071981;28;20548;-47
2022/09/20 05:13:53;;;;;;;9.20;6.00;;;11.30;85.80;;;;;;5064139;28;20491;-47
2022/09/20 05:17:05;;;;;;;12.07;5.47;;;11.40;85.60;;;;;;5067621;28;21033;-48
2022/09/20 05:19:54;;;;;;;6.70;4.83;;;11.50;85.50;;;;;;5041680;28;20462;-47
2022/09/20 05:22:41;;;;;;;9.47;5.80;;;11.40;85.50;;;;;;5067101;28;21156;-47
2022/09/20 05:25:39;;;;;;;9.63;6.97;;;11.40;85.80;;;;;;5076252;28;20500;-47
2022/09/20 05:28:38;;;;;;;7.07;6.37;;;11.40;85.90;;;;;;5074496;28;20488;-47
2022/09/20 05:31:29;;;;;;;8.87;6.40;;;11.50;85.60;;;;;;5032747;28;20995;-47
2022/09/20 05:34:30;;;;;;;5.73;5.23;;;11.60;85.90;;;;;;5037595;28;20448;-47
2022/09/20 05:37:31;;;;;;;6.73;5.37;;;11.70;85.90;;;;;;5071652;28;20465;-47
2022/09/20 05:40:32;;;;;;;9.73;5.20;;;11.70;85.40;;;;;;5073483;28;20468;-47
2022/09/20 05:43:19;;;;;;;5.37;4.83;;;11.70;85.50;;;;;;5057964;28;20469;-47
2022/09/20 05:45:59;;;;;;;5.33;4.80;;;11.70;85.90;;;;;;5058740;28;20543;-47
2022/09/20 05:48:50;;;;;;;5.53;4.17;;;11.70;85.60;;;;;;5063513;28;20472;-47
2022/09/20 05:51:31;;;;;;;5.60;4.03;;;11.80;85.60;;;;;;5074496;28;20481;-47
2022/09/20 05:54:12;;;;;;;8.07;4.90;;;11.80;85.60;;;;;;5075043;28;20492;-47
2022/09/20 05:57:02;;;;;;;10.23;4.57;;;11.80;85.50;;;;;;5070854;28;20548;-47
2022/09/20 06:00:06;;;;;;;8.93;4.57;;;11.80;85.70;;;;;;5053309;28;20489;-47
2022/09/20 06:02:50;;;;;;;9.30;4.60;;;11.80;85.50;;;;;;5069755;28;21179;-47
2022/09/20 06:05:26;;;;;;;5.70;4.27;;;11.80;85.40;;;;;;5068660;28;20555;-47
2022/09/20 06:08:22;;;;;;;12.90;5.80;;;11.90;85.30;;;;;;5071960;28;20631;-47
2022/09/20 06:11:09;;;;;;;10.50;3.50;;;12.00;85.10;;;;;;5076447;28;20531;-48
2022/09/20 06:14:30;;;;;;;5.30;3.60;;;12.00;85.00;;;;;;5075401;28;21054;-48
2022/09/20 06:17:03;;;;;;;12.60;3.97;;;12.10;84.80;;;;;;5002127;28;20835;-48
2022/09/20 06:19:40;;;;;;;7.20;3.90;;;12.20;84.40;;;;;;5064111;28;20488;-48
2022/09/20 06:22:23;;;;;;;14.73;9.67;;;12.30;84.40;;;;;;5054057;28;20611;-47
2022/09/20 06:25:08;;;;;;;16.83;6.30;;;12.30;84.10;;;;;;5060430;28;20511;-47
2022/09/20 06:27:41;;;;;;;6.70;4.00;;;12.40;84.00;;;;;;5064462;28;20520;-47
2022/09/20 06:30:16;;;;;;;10.87;3.57;;;12.40;83.80;;;;;;5067684;28;20470;-47
2022/09/20 06:33:16;;;;;;;13.60;4.53;;;12.40;84.00;;;;;;5061423;28;20476;-47
2022/09/20 06:41:25;;;;;;;7.97;4.70;;;12.50;84.00;;;;;;5038214;28;20489;-47
2022/09/20 06:41:44;;;;;;;11.20;4.77;;;12.60;83.70;;;;;;5076353;28;20496;-47
2022/09/20 06:44:11;;;;;;;8.40;5.30;;;12.70;83.40;;;;;;5073000;28;20511;-47
2022/09/20 06:46:40;;;;;;;7.40;4.73;;;12.70;83.20;;;;;;5047626;28;20581;-47
2022/09/20 06:49:09;;;;;;;7.10;4.60;;;12.80;83.10;;;;;;5078075;28;20696;-47
2022/09/20 06:51:38;;;;;;;9.03;5.00;;;12.80;82.80;;;;;;5063365;28;20748;-47
2022/09/20 06:54:10;;;;;;;7.77;5.90;;;12.90;82.40;;;;;;5073344;28;20887;-48
2022/09/20 06:56:37;;;;;;;12.40;4.80;;;13.00;81.90;;;;;;5065338;28;20973;-48
2022/09/20 06:59:09;;;;;;;7.87;5.13;;;13.00;81.70;;;;;;5058741;28;20531;-47
2022/09/20 07:01:36;;;;;;;7.40;4.77;;;13.00;81.40;;;;;;5060245;28;20465;-47
2022/09/20 07:04:04;;;;;;;6.77;4.13;;;13.10;81.30;;;;;;5072577;28;20476;-47
2022/09/20 07:06:32;;;;;;;8.70;4.93;;;13.20;80.90;;;;;;5071940;28;20930;-47
2022/09/20 07:08:59;;;;;;;9.33;4.60;;;13.20;80.60;;;;;;5062468;28;20473;-47
2022/09/20 07:11:25;;;;;;;9.70;4.70;;;13.20;80.20;;;;;;5071282;28;20583;-47
2022/09/20 07:13:54;;;;;;;5.93;4.83;;;13.30;80.10;;;;;;5077011;28;20863;-47
2022/09/20 07:16:21;;;;;;;14.03;5.67;;;13.30;80.20;;;;;;5053679;28;20544;-48
2022/09/20 07:18:48;;;;;;;8.10;4.10;;;13.30;80.20;;;;;;5056842;28;20458;-47
2022/09/20 07:21:17;;;;;;;6.10;4.40;;;13.30;80.10;;;;;;5073504;28;20461;-47
2022/09/20 07:23:44;;;;;;;7.67;4.43;;;13.30;80.20;;;;;;5055902;28;20461;-47
2022/09/20 07:26:20;;;;;;;8.90;4.90;;;13.40;80.10;;;;;;5074243;28;20464;-47
2022/09/20 07:28:48;;;;;;;11.13;4.43;;;13.40;80.00;;;;;;5058669;28;20838;-47
2022/09/20 07:31:19;;;;;;;6.23;4.10;;;13.40;80.00;;;;;;5072151;28;20525;-47
2022/09/20 07:33:46;;;;;;;8.43;4.37;;;13.50;79.70;;;;;;5058277;28;20464;-47
2022/09/20 07:36:13;;;;;;;5.23;3.70;;;13.50;79.60;;;;;;5076806;28;20485;-48
2022/09/20 07:38:40;;;;;;;8.63;4.37;;;13.50;79.60;;;;;;5074463;28;21030;-47
2022/09/20 07:41:08;;;;;;;10.57;4.80;;;13.50;79.60;;;;;;5075399;28;20969;-47
2022/09/20 07:43:34;;;;;;;5.20;3.93;;;13.60;79.50;;;;;;5074060;28;20462;-47
2022/09/20 07:46:01;;;;;;;9.00;4.30;;;13.60;79.40;;;;;;5076744;28;20464;-47
2022/09/20 07:48:30;;;;;;;5.60;4.60;;;13.70;78.00;;;;;;5072868;28;20493;-47
2022/09/20 07:51:01;;;;;;;7.30;4.97;;;13.70;78.30;;;;;;5074731;28;20839;-47
2022/09/20 07:53:33;;;;;;;7.17;4.60;;;13.80;78.00;;;;;;5070366;28;20453;-47
2022/09/20 07:56:04;;;;;;;8.10;4.60;;;13.90;77.00;;;;;;5059225;28;20509;-47
2022/09/20 07:58:34;;;;;;;11.00;5.00;;;13.90;76.50;;;;;;5055403;28;21034;-48
2022/09/20 08:01:03;;;;;;;12.10;4.97;;;13.90;76.90;;;;;;5072237;28;20564;-47
2022/09/20 08:03:31;;;;;;;7.30;4.20;;;14.00;76.20;;;;;;5067464;28;20461;-48
2022/09/20 08:06:09;;;;;;;7.53;4.53;;;14.00;76.10;;;;;;5068936;28;20986;-47
2022/09/20 08:08:39;;;;;;;8.73;3.17;;;14.00;76.40;;;;;;5055635;28;20520;-47
2022/09/20 08:11:07;;;;;;;6.73;5.07;;;14.00;76.20;;;;;;5076852;28;20457;-48
2022/09/20 08:13:39;;;;;;;8.03;4.60;;;14.10;76.20;;;;;;5072862;28;20460;-47
2022/09/20 08:16:27;;;;;;;7.90;4.30;;;14.10;75.70;;;;;;5071422;28;21090;-48
2022/09/20 08:18:56;;;;;;;6.47;4.33;;;14.30;75.50;;;;;;5037578;28;20898;-47
2022/09/20 08:21:34;;;;;;;6.00;4.47;;;14.30;74.70;;;;;;5077106;28;20494;-47
2022/09/20 08:24:02;;;;;;;6.50;4.00;;;14.20;75.20;;;;;;5072584;28;20468;-48
2022/09/20 08:26:34;;;;;;;5.47;4.07;;;14.20;75.70;;;;;;5071526;28;21144;-48
2022/09/20 08:29:02;;;;;;;7.17;4.73;;;14.30;75.30;;;;;;5058632;28;20770;-48
2022/09/20 08:31:33;;;;;;;12.53;4.60;;;14.40;74.70;;;;;;5053659;28;20453;-48
2022/09/20 08:34:05;;;;;;;8.57;3.90;;;14.40;74.90;;;;;;5058852;28;20461;-47
2022/09/20 08:36:34;;;;;;;6.13;4.10;;;14.40;74.90;;;;;;5072565;28;20454;-47
2022/09/20 08:39:03;;;;;;;6.90;3.53;;;14.40;75.20;;;;;;5069381;28;20457;-48
2022/09/20 08:41:55;;;;;;;9.73;3.93;;;14.40;75.40;;;;;;5074616;28;20465;-48
2022/09/20 08:44:25;;;;;;;6.30;4.03;;;14.50;75.30;;;;;;5056934;28;20697;-48
2022/09/20 08:47:17;;;;;;;10.40;3.90;;;14.60;74.50;;;;;;5050833;28;20484;-47
2022/09/20 08:49:44;;;;;;;7.27;4.00;;;14.70;74.00;;;;;;5073974;28;20547;-48
2022/09/20 08:52:17;;;;;;;7.53;5.13;;;14.70;74.10;;;;;;5072994;28;21126;-48
2022/09/20 08:54:44;;;;;;;9.93;4.00;;;14.70;73.60;;;;;;5071004;28;21072;-48
2022/09/20 08:57:16;;;;;;;6.13;3.40;;;14.80;72.90;;;;;;5057792;28;20509;-48
2022/09/20 08:59:43;;;;;;;4.40;3.10;;;14.90;71.70;;;;;;5071076;28;20556;-48
2022/09/20 09:02:19;;;;;;;9.40;3.60;;;14.90;72.10;;;;;;5071210;28;20505;-48
2022/09/20 09:04:48;;;;;;;8.83;3.80;;;14.80;72.70;;;;;;5077244;28;20826;-48
2022/09/20 09:07:19;;;;;;;7.23;4.03;;;14.80;72.70;;;;;;5074831;28;20575;-48
2022/09/20 09:09:49;;;;;;;5.60;2.90;;;14.80;71.70;;;;;;5068572;28;21975;-48
2022/09/20 09:12:25;;;;;;;5.50;4.10;;;14.80;72.30;;;;;;5058537;28;20827;-48
2022/09/20 09:14:58;;;;;;;5.80;3.00;;;14.80;72.70;;;;;;5075040;28;21018;-48
2022/09/20 09:17:27;;;;;;;6.60;3.20;;;14.80;72.80;;;;;;5078502;28;20503;-47
2022/09/20 09:19:55;;;;;;;6.77;3.03;;;14.90;74.00;;;;;;5076201;28;20531;-48
2022/09/20 09:22:42;;;;;;;4.60;3.17;;;14.80;76.60;;;;;;5075747;28;20559;-48
2022/09/20 09:25:21;;;;;;;6.23;4.00;;;14.80;76.80;;;;;;5077868;28;20492;-48
2022/09/20 09:27:53;;;;;;;4.53;3.27;;;14.60;77.20;;;;;;5076994;28;20528;-47
2022/09/20 09:30:25;;;;;;;5.10;3.07;;;14.50;77.70;;;;;;5078316;28;20461;-47
2022/09/20 09:33:25;;;;;;;7.53;3.40;;;14.40;77.80;;;;;;5074508;28;20517;-47
2022/09/20 09:35:52;;;;;;;6.10;4.60;;;14.30;78.30;;;;;;5062866;28;20847;-48
2022/09/20 09:38:22;;;;;;;4.23;2.40;;;14.30;79.10;;;;;;5065511;28;20470;-48
2022/09/20 09:40:53;;;;;;;1.90;1.80;;;14.30;80.20;;;;;;5078072;28;21028;-47
2022/09/20 09:43:25;;;;;;;14.77;2.07;;;14.20;76.40;;;;;;5076758;28;20468;-47
2022/09/20 09:45:53;;;;;;;2.73;1.73;;;14.10;75.40;;;;;;5071739;28;20527;-48
2022/09/20 09:48:22;;;;;;;3.63;1.67;;;14.00;76.50;;;;;;5067561;28;20518;-47
2022/09/20 09:50:52;;;;;;;5.10;2.17;;;13.80;77.90;;;;;;5072244;28;20575;-48
2022/09/20 09:53:21;;;;;;;4.60;1.80;;;13.80;79.10;;;;;;5054145;28;20453;-48
2022/09/20 09:56:00;;;;;;;8.90;2.60;;;13.80;78.90;;;;;;5056372;28;20481;-48
2022/09/20 09:58:42;;;;;;;5.20;2.50;;;13.80;79.60;;;;;;5066975;28;20530;-48
2022/09/20 10:01:32;;;;;;;9.23;3.47;;;13.80;80.50;;;;;;5072841;28;20692;-48
2022/09/20 10:04:11;;;;;;;3.53;3.20;;;13.90;80.70;;;;;;5077748;28;20511;-48
2022/09/20 10:06:48;;;;;;;4.17;2.87;;;14.10;81.00;;;;;;5068120;28;20908;-48
2022/09/20 10:09:56;;;;;;;5.13;3.10;;;14.10;80.30;;;;;;5072585;28;20475;-48
2022/09/20 10:12:35;;;;;;;5.70;3.50;;;14.10;80.40;;;;;;5067105;28;20552;-48
2022/09/20 10:15:32;;;;;;;7.03;4.10;;;14.20;80.40;;;;;;5074045;28;20511;-48
2022/09/20 10:18:23;;;;;;;4.90;3.73;;;14.20;80.60;;;;;;5073888;28;20504;-47
2022/09/20 10:21:01;;;;;;;5.77;4.30;;;14.20;80.30;;;;;;5066090;28;20501;-48
2022/09/20 10:24:10;;;;;;;7.47;3.30;;;14.20;80.20;;;;;;5072739;28;20504;-48
2022/09/20 10:27:01;;;;;;;6.17;3.43;;;14.30;80.80;;;;;;5067224;28;20496;-48
2022/09/20 10:29:30;;;;;;;4.20;3.57;;;14.20;80.20;;;;;;5071675;28;21178;-48
2022/09/20 10:32:09;;;;;;;4.67;3.33;;;14.20;80.00;;;;;;5075144;28;21275;-47
2022/09/20 10:34:51;;;;;;;5.13;3.43;;;14.30;80.30;;;;;;5079762;28;20457;-48
2022/09/20 10:37:44;;;;;;;8.83;3.50;;;14.50;80.00;;;;;;5079052;28;20559;-48
2022/09/20 10:40:14;;;;;;;4.57;3.37;;;14.70;77.60;;;;;;5066091;28;20460;-48
2022/09/20 10:43:15;;;;;;;5.17;3.40;;;14.80;77.60;;;;;;5061757;28;20544;-48
2022/09/20 10:46:14;;;;;;;5.93;3.60;;;14.80;77.80;;;;;;5054730;28;20456;-48
2022/09/20 10:49:16;;;;;;;4.50;3.70;;;14.70;77.80;;;;;;5071068;28;20485;-48
2022/09/20 10:51:57;;;;;;;5.17;3.40;;;14.70;78.60;;;;;;5061667;28;20526;-48
2022/09/20 10:54:54;;;;;;;6.73;3.57;;;14.70;78.10;;;;;;5072111;28;20568;-48
2022/09/20 10:57:47;;;;;;;4.03;3.10;;;14.80;77.60;;;;;;5055839;28;20480;-48
2022/09/20 11:00:32;;;;;;;5.30;3.60;;;14.80;77.50;;;;;;5055802;28;20490;-48
2022/09/20 11:03:33;;;;;;;3.77;2.47;;;14.70;78.50;;;;;;5060309;28;20491;-48
2022/09/20 11:06:24;;;;;;;4.00;3.33;;;14.80;78.30;;;;;;5062375;28;20461;-48
2022/09/20 11:08:55;;;;;;;4.70;3.73;;;14.80;77.60;;;;;;5065972;28;20552;-48
2022/09/20 11:11:31;;;;;;;3.53;3.20;;;14.70;76.80;;;;;;5072232;28;20453;-48
2022/09/20 11:14:05;;;;;;;5.27;4.03;;;14.60;77.80;;;;;;5058242;28;20480;-48
2022/09/20 11:16:37;;;;;;;3.93;3.20;;;14.60;78.30;;;;;;5041727;28;20535;-48
2022/09/20 11:19:13;;;;;;;5.87;4.43;;;14.60;78.70;;;;;;5073663;28;20457;-48
2022/09/20 11:21:53;;;;;;;6.10;3.50;;;14.60;79.10;;;;;;5070036;28;20507;-48
2022/09/20 11:24:31;;;;;;;4.30;3.07;;;14.60;79.20;;;;;;5069626;28;20999;-48
2022/09/20 11:27:17;;;;;;;9.53;3.63;;;14.60;78.10;;;;;;5055801;28;20511;-48
2022/09/20 11:30:07;;;;;;;3.70;3.00;;;14.60;78.30;;;;;;5069734;28;20552;-48
2022/09/20 11:32:53;;;;;;;6.30;3.33;;;14.60;78.10;;;;;;5074888;28;20517;-48
2022/09/20 11:35:56;;;;;;;6.43;3.23;;;14.70;77.60;;;;;;5072556;28;20888;-48
2022/09/20 11:38:47;;;;;;;6.23;3.40;;;14.70;77.00;;;;;;5032420;28;20469;-48
2022/09/20 11:41:25;;;;;;;6.27;3.33;;;14.80;76.70;;;;;;5073594;28;20469;-48
2022/09/20 11:43:54;;;;;;;3.90;2.23;;;14.80;76.20;;;;;;5071588;28;20541;-48
2022/09/20 11:46:29;;;;;;;4.00;2.50;;;14.90;72.90;;;;;;5071239;28;20816;-48
2022/09/20 11:49:04;;;;;;;5.13;2.27;;;14.90;70.80;;;;;;5068333;28;20524;-48
2022/09/20 11:51:56;;;;;;;3.80;1.70;;;14.90;70.10;;;;;;5055733;28;21097;-48
2022/09/20 11:54:39;;;;;;;7.17;2.00;;;15.00;68.90;;;;;;5071623;28;20498;-48
2022/09/20 11:57:14;;;;;;;2.47;1.80;;;15.00;68.40;;;;;;5074570;28;20461;-48
2022/09/20 11:59:49;;;;;;;3.10;2.20;;;15.00;66.60;;;;;;5059646;28;20550;-48
2022/09/20 12:02:28;;;;;;;3.03;2.57;;;15.00;68.60;;;;;;5072674;28;20509;-48
2022/09/20 12:04:55;;;;;;;5.53;2.40;;;15.00;70.80;;;;;;5072423;28;20464;-48
2022/09/20 12:07:45;;;;;;;5.13;3.30;;;15.10;71.90;;;;;;5059883;28;20487;-48
2022/09/20 12:10:34;;;;;;;2.90;2.50;;;15.10;71.50;;;;;;5072913;28;20572;-48
2022/09/20 12:13:21;;;;;;;2.60;2.40;;;15.20;71.50;;;;;;5074774;28;20797;-48
2022/09/20 12:16:07;;;;;;;3.50;2.47;;;15.30;69.80;;;;;;5073059;28;20498;-48
2022/09/20 12:18:34;;;;;;;4.00;2.60;;;15.30;70.60;;;;;;5055366;28;20567;-48
2022/09/20 12:21:06;;;;;;;4.13;2.40;;;15.30;70.40;;;;;;5068851;28;20489;-48
2022/09/20 12:23:41;;;;;;;6.23;2.40;;;15.30;69.50;;;;;;5052919;28;20472;-48
2022/09/20 12:26:12;;;;;;;4.70;2.30;;;15.40;69.50;;;;;;5072130;28;21019;-48
2022/09/20 12:28:42;;;;;;;2.97;2.50;;;15.30;70.50;;;;;;5074047;28;20496;-48
2022/09/20 12:31:20;;;;;;;4.90;2.40;;;15.20;70.30;;;;;;5048851;28;20544;-48
2022/09/20 12:34:14;;;;;;;3.23;2.07;;;15.20;69.60;;;;;;5072370;28;20936;-48
2022/09/20 12:36:45;;;;;;;2.63;2.20;;;15.20;69.90;;;;;;5047884;28;20461;-48
2022/09/20 12:39:11;;;;;;;5.23;1.93;;;15.20;68.10;;;;;;5052091;28;20494;-48
2022/09/20 12:41:58;;;;;;;3.70;2.40;;;15.30;66.80;;;;;;5052602;28;20504;-48
2022/09/20 12:44:31;;;;;;;3.40;2.70;;;15.30;67.20;;;;;;5046031;28;20454;-48
2022/09/20 12:47:18;;;;;;;5.83;2.10;;;15.20;68.10;;;;;;5041807;28;20543;-47
2022/09/20 12:52:52;;;;;;;4.73;2.20;;;15.20;68.60;;;;;;5051560;28;20454;-48
2022/09/20 12:55:25;;;;;;;4.23;2.13;;;15.20;69.00;;;;;;5047956;28;21033;-48
2022/09/20 12:58:02;;;;;;;3.37;1.80;;;15.20;68.90;;;;;;5037861;28;20486;-48
2022/09/20 13:01:07;;;;;;;3.57;1.93;;;15.20;67.70;;;;;;5028270;28;20464;-48
2022/09/20 13:03:45;;;;;;;4.77;2.10;;;15.20;68.50;;;;;;5008738;28;20467;-48
2022/09/20 13:06:16;;;;;;;3.37;2.00;;;15.20;68.70;;;;;;5000988;28;20506;-47
2022/09/20 13:09:01;;;;;;;3.77;2.33;;;15.10;69.10;;;;;;5025480;28;20528;-48
2022/09/20 13:11:38;;;;;;;4.03;2.20;;;15.10;69.00;;;;;;5034883;28;20454;-48
2022/09/20 13:14:07;;;;;;;2.23;1.77;;;15.20;68.20;;;;;;5050377;28;20871;-48
2022/09/20 13:16:46;;;;;;;6.40;2.30;;;15.20;66.60;;;;;;5054881;28;20457;-47
2022/09/20 13:19:27;;;;;;;2.60;1.97;;;15.20;67.00;;;;;;5048896;28;20498;-48
2022/09/20 13:21:57;;;;;;;4.40;2.10;;;15.30;67.40;;;;;;5052213;28;20535;-48
2022/09/20 13:24:26;;;;;;;3.13;1.87;;;15.30;67.30;;;;;;5051131;28;20461;-48
2022/09/20 13:27:00;;;;;;;6.17;2.20;;;15.30;66.70;;;;;;5048951;28;20462;-48
2022/09/20 13:29:38;;;;;;;2.47;2.07;;;15.30;66.40;;;;;;5051411;28;20492;-48
2022/09/20 13:32:29;;;;;;;4.00;2.27;;;15.30;66.60;;;;;;5033895;28;21038;-48
2022/09/20 13:35:18;;;;;;;3.67;2.20;;;15.30;67.20;;;;;;5038384;28;20891;-48
2022/09/20 13:37:53;;;;;;;2.23;2.03;;;15.40;67.80;;;;;;5050000;28;20458;-48
2022/09/20 13:40:30;;;;;;;3.57;1.87;;;15.40;66.60;;;;;;5049128;28;20524;-48
2022/09/20 13:43:00;;;;;;;2.87;1.37;;;15.40;66.70;;;;;;5054009;28;20544;-47
2022/09/20 13:45:52;;;;;;;2.10;1.53;;;15.40;66.80;;;;;;5056693;28;20476;-48
2022/09/20 13:48:26;;;;;;;3.00;1.57;;;15.40;67.00;;;;;;5053959;28;20535;-48
2022/09/20 13:50:54;;;;;;;1.97;1.87;;;15.40;65.10;;;;;;5037806;28;20540;-48
2022/09/20 13:53:23;;;;;;;2.23;1.33;;;15.40;64.00;;;;;;5036174;28;20487;-48
2022/09/20 13:56:24;;;;;;;1.70;1.40;;;15.50;63.80;;;;;;5055753;28;21419;-48